createdAt,value
2023-10-30T00:09:01.516Z,10.02
2023-10-30T00:12:34.945Z,10.04
2023-10-30T00:20:08.832Z,10.05
2023-10-30T00:23:20.481Z,10.03
2023-10-30T00:27:48.201Z,10.02
2023-10-30T00:30:57.071Z,10.02
2023-10-30T00:34:04.297Z,10.08
2023-10-30T00:37:15.128Z,10.12
2023-10-30T00:40:33.393Z,10.15
2023-10-30T00:44:21.574Z,10.13
2023-10-30T00:47:33.686Z,10.08
2023-10-30T00:50:39.738Z,10.05
2023-10-30T00:53:36.575Z,10.03
2023-10-30T00:57:28.325Z,10.06
2023-10-30T01:00:57.691Z,10.07
2023-10-30T01:04:37.011Z,10.06
2023-10-30T01:07:42.829Z,10.08
2023-10-30T01:10:58.573Z,10.06
2023-10-30T01:14:40.457Z,10.07
2023-10-30T01:18:05.351Z,10.06
2023-10-30T01:21:28.832Z,9.98
2023-10-30T01:24:41.694Z,9.96
2023-10-30T01:28:04.279Z,9.95
2023-10-30T01:31:07.740Z,9.93
2023-10-30T01:34:45.826Z,9.95
2023-10-30T01:42:13.117Z,10.04
2023-10-30T01:45:52.662Z,10.04
2023-10-30T01:49:19.089Z,10.05
2023-10-30T01:53:00.511Z,10.06
2023-10-30T01:56:38.677Z,10.08
2023-10-30T02:00:42.396Z,10.12
2023-10-30T02:04:19.472Z,10.15
2023-10-30T02:08:00.424Z,10.16
2023-10-30T02:11:17.666Z,10.14
2023-10-30T02:14:39.289Z,10.13
2023-10-30T02:17:46.733Z,10.13
2023-10-30T02:21:01.511Z,10.10
2023-10-30T02:24:31.442Z,10.11
2023-10-30T02:32:04.738Z,10.15
2023-10-30T02:35:24.302Z,10.13
2023-10-30T02:39:04.402Z,10.14
2023-10-30T02:42:19.254Z,10.12
2023-10-30T02:45:33.411Z,10.14
2023-10-30T02:48:52.271Z,10.09
2023-10-30T02:51:51.726Z,10.08
2023-10-30T02:55:17.795Z,10.05
2023-10-30T02:58:16.677Z,10.00
2023-10-30T03:01:20.675Z,9.98
2023-10-30T03:04:51.007Z,9.95
2023-10-30T03:07:50.046Z,9.95
2023-10-30T03:11:04.572Z,9.94
2023-10-30T03:14:04.666Z,9.99
2023-10-30T03:17:06.564Z,10.00
2023-10-30T03:20:00.907Z,9.98
2023-10-30T03:23:11.978Z,9.96
2023-10-30T03:26:34.974Z,9.95
2023-10-30T03:32:50.243Z,9.96
2023-10-30T03:36:18.496Z,9.94
2023-10-30T03:39:13.159Z,9.89
2023-10-30T03:42:29.760Z,9.87
2023-10-30T03:45:45.237Z,9.86
2023-10-30T03:48:49.258Z,9.79
2023-10-30T03:52:15.018Z,9.76
2023-10-30T03:55:22.558Z,9.79
2023-10-30T03:58:05.477Z,9.80
2023-10-30T04:01:22.484Z,9.79
2023-10-30T04:04:14.966Z,9.77
2023-10-30T04:07:01.390Z,9.71
2023-10-30T04:09:45.957Z,9.73
2023-10-30T04:13:09.296Z,9.75
2023-10-30T04:16:17.621Z,9.76
2023-10-30T04:19:22.929Z,9.75
2023-10-30T04:22:22.254Z,9.79
2023-10-30T04:25:09.732Z,9.77
2023-10-30T04:28:04.159Z,9.76
2023-10-30T04:30:57.484Z,9.78
2023-10-30T04:33:41.497Z,9.77
2023-10-30T04:36:46.069Z,9.75
2023-10-30T04:40:55.125Z,9.73
2023-10-30T04:43:33.587Z,9.67
2023-10-30T04:46:50.140Z,9.71
2023-10-30T04:50:08.780Z,9.72
2023-10-30T04:53:13.509Z,9.73
2023-10-30T04:57:05.414Z,9.70
2023-10-30T05:00:25.237Z,9.69
2023-10-30T05:03:08.437Z,9.71
2023-10-30T05:06:24.515Z,9.77
2023-10-30T05:09:31.257Z,9.79
2023-10-30T05:12:32.595Z,9.83
2023-10-30T05:16:07.419Z,9.90
2023-10-30T05:19:34.388Z,9.92
2023-10-30T05:22:24.360Z,9.96
2023-10-30T05:25:21.156Z,9.97
2023-10-30T05:33:12.745Z,10.09
2023-10-30T05:36:36.208Z,10.17
2023-10-30T05:40:09.446Z,10.27
2023-10-30T05:43:32.489Z,10.34
2023-10-30T05:51:42.812Z,10.50
2023-10-30T05:55:21.823Z,10.58
2023-10-30T05:58:25.983Z,10.63
2023-10-30T06:01:52.380Z,10.61
2023-10-30T06:04:52.257Z,10.64
2023-10-30T06:08:12.633Z,10.70
2023-10-30T06:11:26.654Z,10.75
2023-10-30T06:14:45.660Z,10.83
2023-10-30T06:18:08.546Z,10.97
2023-10-30T06:21:22.466Z,11.04
2023-10-30T06:24:18.766Z,11.11
2023-10-30T06:26:54.096Z,11.11
2023-10-30T06:29:52.001Z,11.07
2023-10-30T06:32:47.521Z,11.05
2023-10-30T06:36:08.536Z,11.04
2023-10-30T06:39:04.440Z,11.02
2023-10-30T06:42:09.906Z,11.05
2023-10-30T06:45:32.880Z,11.08
2023-10-30T06:52:29.079Z,11.18
2023-10-30T06:55:11.906Z,11.21
2023-10-30T06:58:34.428Z,11.27
2023-10-30T07:01:21.907Z,11.29
2023-10-30T07:04:51.537Z,11.29
2023-10-30T07:08:10.840Z,11.30
2023-10-30T07:11:20.878Z,11.33
2023-10-30T07:14:31.228Z,11.40
2023-10-30T07:17:52.910Z,11.44
2023-10-30T07:21:17.663Z,11.52
2023-10-30T07:24:27.202Z,11.53
2023-10-30T07:27:27.077Z,11.53
2023-10-30T07:30:25.229Z,11.54
2023-10-30T07:33:15.594Z,11.51
2023-10-30T07:36:06.694Z,11.52
2023-10-30T07:39:26.828Z,11.57
2023-10-30T07:42:31.209Z,11.66
2023-10-30T07:45:49.252Z,11.77
2023-10-30T07:48:44.296Z,11.87
2023-10-30T07:51:57.608Z,11.93
2023-10-30T07:55:09.857Z,12.01
2023-10-30T07:57:48.529Z,12.03
2023-10-30T08:00:31.482Z,12.11
2023-10-30T08:03:39.075Z,12.17
2023-10-30T08:06:29.898Z,12.21
2023-10-30T08:09:03.473Z,12.28
2023-10-30T08:12:52.250Z,12.41
2023-10-30T08:15:10.928Z,12.53
2023-10-30T08:18:06.619Z,12.63
2023-10-30T08:20:57.258Z,12.72
2023-10-30T08:24:31.720Z,12.73
2023-10-30T08:28:01.505Z,12.76
2023-10-30T08:30:42.786Z,12.77
2023-10-30T08:33:28.638Z,12.76
2023-10-30T08:36:17.864Z,12.77
2023-10-30T08:38:46.467Z,12.76
2023-10-30T08:41:23.309Z,12.73
2023-10-30T08:43:56.226Z,12.75
2023-10-30T08:49:38.096Z,12.85
2023-10-30T08:52:33.674Z,12.91
2023-10-30T08:55:25.204Z,13.00
2023-10-30T08:58:30.429Z,12.98
2023-10-30T09:02:04.794Z,13.06
2023-10-30T09:04:47.135Z,13.16
2023-10-30T09:07:43.822Z,13.21
2023-10-30T09:11:04.097Z,13.28
2023-10-30T09:14:04.543Z,13.34
2023-10-30T09:17:08.695Z,13.38
2023-10-30T09:19:43.455Z,13.43
2023-10-30T09:23:09.204Z,13.46
2023-10-30T09:25:59.120Z,13.48
2023-10-30T09:28:37.553Z,13.50
2023-10-30T09:31:13.469Z,13.52
2023-10-30T09:33:41.255Z,13.53
2023-10-30T09:36:18.743Z,13.57
2023-10-30T09:39:37.667Z,13.66
2023-10-30T09:42:47.360Z,13.70
2023-10-30T09:45:29.826Z,13.77
2023-10-30T09:48:25.404Z,13.83
2023-10-30T09:51:00.364Z,13.85
2023-10-30T09:53:37.217Z,13.84
2023-10-30T09:56:33.641Z,13.85
2023-10-30T09:59:56.996Z,13.91
2023-10-30T10:02:35.393Z,14.15
2023-10-30T10:05:37.201Z,14.25
2023-10-30T10:09:05.764Z,14.35
2023-10-30T10:12:28.038Z,14.42
2023-10-30T10:15:07.800Z,14.45
2023-10-30T10:17:46.555Z,14.48
2023-10-30T10:20:34.524Z,14.52
2023-10-30T10:23:20.323Z,14.57
2023-10-30T10:26:18.141Z,14.63
2023-10-30T10:28:54.287Z,14.66
2023-10-30T10:31:24.663Z,14.70
2023-10-30T10:33:55.792Z,14.74
2023-10-30T10:36:34.087Z,14.75
2023-10-30T10:39:07.303Z,14.83
2023-10-30T10:41:38.075Z,14.86
2023-10-30T10:44:36.983Z,14.96
2023-10-30T10:47:27.792Z,15.00
2023-10-30T10:50:26.472Z,15.03
2023-10-30T10:52:58.320Z,15.07
2023-10-30T10:55:38.540Z,15.12
2023-10-30T10:58:19.391Z,15.14
2023-10-30T11:01:11.524Z,15.18
2023-10-30T11:03:47.795Z,15.21
2023-10-30T11:06:40.698Z,15.22
2023-10-30T11:09:28.679Z,15.18
2023-10-30T11:12:23.541Z,15.10
2023-10-30T11:15:43.894Z,15.14
2023-10-30T11:18:25.616Z,15.18
2023-10-30T11:21:44.324Z,15.21
2023-10-30T11:24:56.520Z,15.25
2023-10-30T11:28:05.243Z,15.28
2023-10-30T11:35:22.630Z,15.30
2023-10-30T11:38:10.436Z,15.34
2023-10-30T11:41:22.657Z,15.39
2023-10-30T11:44:45.503Z,15.39
2023-10-30T11:47:13.425Z,15.39
2023-10-30T11:49:42.057Z,15.41
2023-10-30T11:52:36.006Z,15.43
2023-10-30T11:55:40.281Z,15.46
2023-10-30T11:58:34.472Z,15.53
2023-10-30T12:01:48.586Z,15.60
2023-10-30T12:05:21.622Z,15.67
2023-10-30T12:08:52.247Z,15.64
2023-10-30T12:12:01.499Z,15.72
2023-10-30T12:14:45.651Z,15.80
2023-10-30T12:17:59.981Z,15.80
2023-10-30T12:20:46.315Z,15.78
2023-10-30T12:23:53.034Z,15.76
2023-10-30T12:26:50.564Z,15.72
2023-10-30T12:29:49.013Z,15.63
2023-10-30T12:32:46.200Z,15.55
2023-10-30T12:35:45.052Z,15.48
2023-10-30T12:38:44.716Z,15.43
2023-10-30T12:41:57.621Z,15.37
2023-10-30T12:44:44.907Z,15.36
2023-10-30T12:47:57.148Z,15.38
2023-10-30T12:50:44.721Z,15.35
2023-10-30T12:53:12.744Z,15.35
2023-10-30T12:55:53.860Z,15.36
2023-10-30T12:58:47.167Z,15.37
2023-10-30T13:01:58.423Z,15.38
2023-10-30T13:04:34.282Z,15.40
2023-10-30T13:07:25.938Z,15.39
2023-10-30T13:10:05.706Z,15.37
2023-10-30T13:12:33.038Z,15.37
2023-10-30T13:15:04.299Z,15.38
2023-10-30T13:17:42.129Z,15.37
2023-10-30T13:20:42.161Z,15.35
2023-10-30T13:23:22.047Z,15.33
2023-10-30T13:25:54.879Z,15.30
2023-10-30T13:28:25.274Z,15.28
2023-10-30T13:30:56.181Z,15.28
2023-10-30T13:33:32.915Z,15.25
2023-10-30T13:36:07.229Z,15.20
2023-10-30T13:38:34.717Z,15.19
2023-10-30T13:41:12.470Z,15.16
2023-10-30T13:43:42.491Z,15.13
2023-10-30T13:46:10.428Z,15.13
2023-10-30T13:48:42.210Z,15.10
2023-10-30T13:51:10.171Z,15.07
2023-10-30T13:53:50.734Z,15.06
2023-10-30T13:57:09.443Z,15.03
2023-10-30T14:00:52.485Z,14.99
2023-10-30T14:04:54.545Z,14.91
2023-10-30T14:08:47.374Z,14.85
2023-10-30T14:12:33.298Z,14.77
2023-10-30T14:16:41.112Z,14.69
2023-10-30T14:24:57.358Z,14.57
2023-10-30T14:29:10.864Z,14.52
2023-10-30T14:34:50.946Z,14.48
2023-10-30T14:38:56.333Z,14.41
2023-10-30T14:41:51.188Z,14.32
2023-10-30T14:47:08.575Z,14.25
2023-10-30T14:54:17.882Z,14.07
2023-10-30T14:57:39.442Z,13.95
2023-10-30T15:10:23.279Z,13.67
2023-10-30T15:13:51.661Z,13.61
2023-10-30T15:16:52.788Z,13.56
2023-10-30T15:20:05.163Z,13.53
2023-10-30T15:23:08.379Z,13.49
2023-10-30T15:29:55.581Z,13.40
2023-10-30T15:30:30.728Z,13.30
2023-10-30T15:34:01.783Z,13.24
2023-10-30T15:37:10.396Z,13.17
2023-10-30T15:40:40.407Z,13.10
2023-10-30T15:43:42.748Z,13.05
2023-10-30T15:47:07.693Z,13.03
2023-10-30T15:50:30.206Z,12.99
2023-10-30T16:00:07.978Z,12.85
2023-10-30T16:03:31.784Z,12.81
2023-10-30T16:06:33.571Z,12.73
2023-10-30T16:09:45.398Z,12.66
2023-10-30T16:12:56.703Z,12.58
2023-10-30T16:16:26.459Z,12.54
2023-10-30T16:19:25.512Z,12.50
2023-10-30T16:22:34.937Z,12.49
2023-10-30T16:26:12.185Z,12.45
2023-10-30T16:29:48.453Z,12.41
2023-10-30T16:33:08.716Z,12.34
2023-10-30T16:36:48.345Z,12.30
2023-10-30T16:43:23.690Z,12.21
2023-10-30T16:46:45.135Z,12.19
2023-10-30T16:50:16.806Z,12.15
2023-10-30T16:53:11.406Z,12.15
2023-10-30T16:56:17.994Z,12.14
2023-10-30T16:59:41.062Z,12.12
2023-10-30T17:07:09.316Z,12.06
2023-10-30T17:10:16.367Z,12.00
2023-10-30T17:13:58.969Z,11.97
2023-10-30T17:17:29.107Z,11.89
2023-10-30T17:20:29.729Z,11.88
2023-10-30T17:23:35.786Z,11.84
2023-10-30T17:26:46.517Z,11.81
2023-10-30T17:29:55.541Z,11.78
2023-10-30T17:32:54.094Z,11.75
2023-10-30T17:37:03.417Z,11.72
2023-10-30T17:39:46.400Z,11.69
2023-10-30T17:42:57.476Z,11.73
2023-10-30T17:46:38.483Z,11.75
2023-10-30T17:50:07.901Z,11.76
2023-10-30T17:53:09.042Z,11.79
2023-10-30T17:56:03.189Z,11.78
2023-10-30T17:58:44.113Z,11.78
2023-10-30T18:02:08.045Z,11.76
2023-10-30T18:05:01.263Z,11.73
2023-10-30T18:08:47.812Z,11.72
2023-10-30T18:12:20.825Z,11.69
2023-10-30T18:15:36.235Z,11.62
2023-10-30T18:18:30.365Z,11.56
2023-10-30T18:21:27.296Z,11.46
2023-10-30T18:24:53.844Z,11.45
2023-10-30T18:28:22.861Z,11.42
2023-10-30T18:32:12.403Z,11.36
2023-10-30T18:35:45.756Z,11.33
2023-10-30T18:38:59.281Z,11.28
2023-10-30T18:42:28.450Z,11.26
2023-10-30T18:46:18.559Z,11.22
2023-10-30T18:49:51.092Z,11.19
2023-10-30T18:52:44.963Z,11.17
2023-10-30T18:56:07.899Z,11.12
2023-10-30T19:08:36.646Z,11.08
2023-10-30T19:11:47.963Z,11.06
2023-10-30T19:15:38.567Z,11.03
2023-10-30T19:19:27.488Z,11.00
2023-10-30T19:23:05.159Z,10.99
2023-10-30T19:26:48.559Z,11.04
2023-10-30T19:30:03.289Z,11.01
2023-10-30T19:33:26.524Z,11.05
2023-10-30T19:36:52.455Z,10.99
2023-10-30T19:54:27.468Z,11.19
2023-10-30T19:58:07.725Z,11.28
2023-10-30T20:10:38.081Z,11.27
2023-10-30T20:14:04.155Z,11.27
2023-10-30T20:17:20.764Z,11.27
2023-10-30T20:21:09.561Z,11.24
2023-10-30T20:25:19.043Z,11.18
2023-10-30T20:29:07.175Z,11.16
2023-10-30T20:37:32.193Z,11.13
2023-10-30T20:41:20.475Z,11.15
2023-10-30T20:49:31.071Z,11.20
2023-10-30T21:00:30.587Z,11.14
2023-10-30T21:09:41.295Z,11.07
2023-10-30T21:13:21.082Z,11.06
2023-10-30T21:16:52.552Z,11.05
2023-10-30T21:24:31.930Z,10.88
2023-10-30T21:28:15.461Z,10.76
2023-10-30T21:32:05.166Z,10.67
2023-10-30T21:35:42.654Z,10.63
2023-10-30T21:39:15.385Z,10.64
2023-10-30T21:43:03.180Z,10.59
2023-10-30T21:46:52.485Z,10.54
2023-10-30T21:55:14.031Z,10.34
2023-10-30T21:59:03.868Z,10.41
2023-10-30T22:02:55.366Z,10.43
2023-10-30T22:12:04.316Z,10.45
2023-10-30T22:15:56.013Z,10.43
2023-10-30T22:20:01.948Z,10.49
2023-10-30T22:23:51.767Z,10.51
2023-10-30T22:27:40.237Z,10.53
2023-10-30T22:31:22.045Z,10.57
2023-10-30T22:36:06.697Z,10.59
2023-10-30T22:44:11.312Z,10.65
2023-10-30T22:47:33.027Z,10.68
2023-10-30T22:51:16.235Z,10.73
2023-10-30T22:55:02.880Z,10.82
2023-10-30T22:58:30.866Z,10.95
2023-10-30T23:01:47.049Z,10.99
2023-10-30T23:05:22.700Z,11.04
2023-10-30T23:09:05.188Z,11.01
2023-10-30T23:12:42.628Z,11.04
2023-10-30T23:20:51.052Z,11.00
2023-10-30T23:24:19.874Z,10.93
2023-10-30T23:32:28.877Z,10.78
2023-10-30T23:36:16.925Z,10.70
2023-10-30T23:39:56.081Z,10.62
2023-10-30T23:43:36.571Z,10.63
2023-10-30T23:47:18.392Z,10.66
2023-10-30T23:50:36.943Z,10.75
2023-10-30T23:57:59.117Z,11.16
